Forside
METAR-TAF:

METAR-TAF

Lufthavne :

Koror, Babeldaob, Palau

Breddekreds: 07-22N, længdekreds: 134-32E, højde: 54 m

Aktuelle vejr

Denne rapport blev lavet for 53 minutter siden, kl. 23:54 UTC
Vind 4 kt fra nordnordvest
Temperatur 27°C
Fugtighed 70%
Tryk 1011 hPa
Sigt: 24.1 km
Nogle få skyer i en højde af 900 ft
Spredte skyer i en højde af 1600 ft
Spredte skyer i en højde af 12000 ft
Brudte skyer i en højde af 30000 ft

METAR: PTRO 232354Z 34004KT 15SM FEW009 SCT016 SCT120 BKN300 27/21 A2986

Tid: 09:47 (00:47 UTC)

Vejrudsigter

Denne rapport blev lavet for 1 time og 15 minutter siden, kl. 23:32 UTC
Foreløbig gælder fra 24 på 00 UTC til 24 på 24 UTC
Vind 10 kt fra nordnordvest
Sigt: 10 km
Spredte skyer i en højde af 1600 ft
Spredte skyer i en højde af 12000 ft
byger i nærheden

TAF: PTRO 232332Z 2400/2424 33010KT P6SM VCSH SCT016 SCT120

Vejrobservationer og prognoser fra mere end 4000 lufthavne (METAR og TAF).

De gule og røde prikker repræsenterer de meteorologiske stationer.

Flyt musen over at se navnet på stationen.

Så klik over at se vejr observationer og prognoser.

At skifte det kort: Klik på de grønne knapper med et sort kors for at zoome ind; på den grønne knap med en bindestreg for at zoome ud; eller på de grønne pile for tilstødende kort.


METAR-TAF: